Etusivu
METAR-TAF:

METAR-TAF

Lentoasemat :

Fresno, Kalifornia, Yhdysvallat

Leveyspiiri: 36-46-48N, Pituuspiiri: 119-43-10W, korkeus merenpinnasta: 101 m

Tämänhetkinen sää

Tämä raportti tehtiin 38 minuuttia sitten, kello 08.53 UTC
Tuuli 8 kn luoteesta
Lämpötila 17°C
Kosteus 59%
Ilmanpaine 1017 hPa
Näkyvyys: 16.1 km
selkeää

METAR: KFAT 210853Z 32008KT 10SM CLR 17/09 A3003 RMK AO2 SLP166 T01720089 58001

Aika: 02:31 (09:31 UTC)

Sääennuste

Tämä raportti tehtiin 4 tuntia ja 11 minuuttia sitten, kello 05.20 UTC
Ennuste voimassa 21. päivästä klo 06 UTC - 22. päivään klo 06 UTC
Tuuli 9 kn luoteesta
Näkyvyys: 10 km
selkeää

TAF: KFAT 210520Z 2106/2206 32009KT P6SM SKC

Säähavainnot ja -ennusteet yli 4000 lentoasemalta (METAR- ja TAF-raportit).

Käytössä olevat sääasemat on merkitty karttaan keltaisilla ja punaisilla pisteillä.

Aseta hiiri pisteen päälle nähdäksesi sääaseman nimen.

Klikkaa sitten nähdäksesi säähavainnot ja -ennusteet.

Kartan vaihtaminen: klikkaa mustalla rastilla varustettuja vihreitä pisteitä, niin voit zoomata sisään; viivalla varustettua vihreää pistettä, niin voit zoomata ulos tai vihreitä nuolia, niin pääset viereisille kartoille.


METAR-TAF: